sensor_id;sensor_type;location;lat;lon;timestamp;pressure;altitude;pressure_sealevel;temperature;humidity
44131;BME280;29792;48.726;9.248;2023-05-06T00:01:50;96982.59;;;15.48;100.00
44131;BME280;29792;48.726;9.248;2023-05-06T00:04:15;96981.94;;;15.46;100.00
44131;BME280;29792;48.726;9.248;2023-05-06T00:06:40;96983.03;;;15.44;100.00
44131;BME280;29792;48.726;9.248;2023-05-06T00:09:06;96990.78;;;15.44;100.00
44131;BME280;29792;48.726;9.248;2023-05-06T00:11:38;96986.91;;;15.40;100.00
44131;BME280;29792;48.726;9.248;2023-05-06T00:14:04;96978.78;;;15.35;100.00
44131;BME280;29792;48.726;9.248;2023-05-06T00:16:30;96976.53;;;15.32;100.00
44131;BME280;29792;48.726;9.248;2023-05-06T00:18:55;96978.59;;;15.28;100.00
44131;BME280;29792;48.726;9.248;2023-05-06T00:21:20;96974.41;;;15.27;100.00
44131;BME280;29792;48.726;9.248;2023-05-06T00:23:45;96971.00;;;15.26;100.00
44131;BME280;29792;48.726;9.248;2023-05-06T00:26:11;96971.69;;;15.28;100.00
44131;BME280;29792;48.726;9.248;2023-05-06T00:28:36;96966.50;;;15.28;100.00
44131;BME280;29792;48.726;9.248;2023-05-06T00:31:01;96967.31;;;15.29;100.00
44131;BME280;29792;48.726;9.248;2023-05-06T00:33:26;96963.13;;;15.28;100.00
44131;BME280;29792;48.726;9.248;2023-05-06T00:35:52;96967.31;;;15.29;100.00
44131;BME280;29792;48.726;9.248;2023-05-06T00:38:17;96970.06;;;15.27;100.00
44131;BME280;29792;48.726;9.248;2023-05-06T00:40:44;96967.63;;;15.26;100.00
44131;BME280;29792;48.726;9.248;2023-05-06T00:43:09;96961.66;;;15.25;100.00
44131;BME280;29792;48.726;9.248;2023-05-06T00:45:35;96961.00;;;15.23;100.00
44131;BME280;29792;48.726;9.248;2023-05-06T00:48:01;96964.69;;;15.21;100.00
44131;BME280;29792;48.726;9.248;2023-05-06T00:50:28;96967.56;;;15.18;100.00
44131;BME280;29792;48.726;9.248;2023-05-06T00:52:55;96970.75;;;15.12;100.00
44131;BME280;29792;48.726;9.248;2023-05-06T00:55:22;96966.38;;;15.04;100.00
44131;BME280;29792;48.726;9.248;2023-05-06T00:57:48;96971.81;;;15.01;100.00
44131;BME280;29792;48.726;9.248;2023-05-06T01:00:14;96971.19;;;14.99;100.00
44131;BME280;29792;48.726;9.248;2023-05-06T01:02:40;96970.38;;;14.99;100.00
44131;BME280;29792;48.726;9.248;2023-05-06T01:05:06;96965.34;;;14.97;100.00
44131;BME280;29792;48.726;9.248;2023-05-06T01:13:14;96968.56;;;14.91;100.00
44131;BME280;29792;48.726;9.248;2023-05-06T01:15:46;96970.47;;;14.89;100.00
44131;BME280;29792;48.726;9.248;2023-05-06T01:18:16;96965.91;;;14.83;100.00
44131;BME280;29792;48.726;9.248;2023-05-06T01:20:46;96968.09;;;14.78;100.00
44131;BME280;29792;48.726;9.248;2023-05-06T01:23:13;96958.13;;;14.75;100.00
44131;BME280;29792;48.726;9.248;2023-05-06T01:25:39;96955.00;;;14.71;100.00
44131;BME280;29792;48.726;9.248;2023-05-06T01:28:06;96966.59;;;14.67;100.00
44131;BME280;29792;48.726;9.248;2023-05-06T01:30:39;96964.31;;;14.64;100.00
44131;BME280;29792;48.726;9.248;2023-05-06T01:33:17;96956.03;;;14.61;100.00
44131;BME280;29792;48.726;9.248;2023-05-06T01:38:45;96962.81;;;14.62;100.00
44131;BME280;29792;48.726;9.248;2023-05-06T01:41:14;96967.16;;;14.61;100.00
44131;BME280;29792;48.726;9.248;2023-05-06T01:43:42;96965.41;;;14.62;100.00
44131;BME280;29792;48.726;9.248;2023-05-06T01:46:12;96966.22;;;14.62;100.00
44131;BME280;29792;48.726;9.248;2023-05-06T01:48:40;96965.41;;;14.62;100.00
44131;BME280;29792;48.726;9.248;2023-05-06T01:51:05;96962.00;;;14.61;100.00
44131;BME280;29792;48.726;9.248;2023-05-06T01:53:31;96968.94;;;14.61;100.00
44131;BME280;29792;48.726;9.248;2023-05-06T01:55:57;96968.94;;;14.61;100.00
44131;BME280;29792;48.726;9.248;2023-05-06T01:58:22;96967.97;;;14.62;100.00
44131;BME280;29792;48.726;9.248;2023-05-06T02:00:47;96976.53;;;14.62;100.00
44131;BME280;29792;48.726;9.248;2023-05-06T02:03:13;96974.75;;;14.63;100.00
44131;BME280;29792;48.726;9.248;2023-05-06T02:05:38;96977.34;;;14.63;100.00
44131;BME280;29792;48.726;9.248;2023-05-06T02:08:03;96966.53;;;14.59;100.00
44131;BME280;29792;48.726;9.248;2023-05-06T02:10:28;96971.16;;;14.56;100.00
44131;BME280;29792;48.726;9.248;2023-05-06T02:12:54;96971.31;;;14.54;100.00
44131;BME280;29792;48.726;9.248;2023-05-06T02:15:19;96966.59;;;14.49;100.00
44131;BME280;29792;48.726;9.248;2023-05-06T02:17:44;96967.03;;;14.45;100.00
44131;BME280;29792;48.726;9.248;2023-05-06T02:20:10;96960.81;;;14.38;100.00
44131;BME280;29792;48.726;9.248;2023-05-06T02:22:35;96958.03;;;14.31;100.00
44131;BME280;29792;48.726;9.248;2023-05-06T02:25:00;96965.41;;;14.26;100.00
44131;BME280;29792;48.726;9.248;2023-05-06T02:27:28;96964.19;;;14.21;100.00
44131;BME280;29792;48.726;9.248;2023-05-06T02:29:54;96965.59;;;14.15;100.00
44131;BME280;29792;48.726;9.248;2023-05-06T02:32:19;96964.44;;;14.09;100.00
44131;BME280;29792;48.726;9.248;2023-05-06T02:34:44;96969.72;;;14.08;100.00
44131;BME280;29792;48.726;9.248;2023-05-06T02:37:10;96964.84;;;14.05;100.00
44131;BME280;29792;48.726;9.248;2023-05-06T02:39:35;96969.06;;;14.06;100.00
44131;BME280;29792;48.726;9.248;2023-05-06T02:42:01;96963.22;;;14.04;100.00
44131;BME280;29792;48.726;9.248;2023-05-06T02:44:26;96954.84;;;14.02;100.00
44131;BME280;29792;48.726;9.248;2023-05-06T02:46:52;96959.19;;;14.01;100.00
44131;BME280;29792;48.726;9.248;2023-05-06T02:49:17;96951.59;;;14.00;100.00
44131;BME280;29792;48.726;9.248;2023-05-06T02:51:42;96952.41;;;14.00;100.00
44131;BME280;29792;48.726;9.248;2023-05-06T02:54:07;96948.91;;;14.01;100.00
44131;BME280;29792;48.726;9.248;2023-05-06T02:56:33;96945.78;;;13.98;100.00
44131;BME280;29792;48.726;9.248;2023-05-06T02:58:59;96947.84;;;13.94;100.00
44131;BME280;29792;48.726;9.248;2023-05-06T03:01:24;96945.13;;;13.96;100.00
44131;BME280;29792;48.726;9.248;2023-05-06T03:03:49;96950.00;;;13.99;100.00
44131;BME280;29792;48.726;9.248;2023-05-06T03:06:15;96944.84;;;13.99;100.00
44131;BME280;29792;48.726;9.248;2023-05-06T03:08:40;96955.13;;;13.99;100.00
44131;BME280;29792;48.726;9.248;2023-05-06T03:11:05;96952.34;;;13.92;100.00
44131;BME280;29792;48.726;9.248;2023-05-06T03:13:31;96950.50;;;13.85;100.00
44131;BME280;29792;48.726;9.248;2023-05-06T03:15:56;96956.34;;;13.77;100.00
44131;BME280;29792;48.726;9.248;2023-05-06T03:18:21;96954.34;;;13.71;100.00
44131;BME280;29792;48.726;9.248;2023-05-06T03:20:47;96961.69;;;13.66;100.00
44131;BME280;29792;48.726;9.248;2023-05-06T03:23:12;96953.84;;;13.67;100.00
44131;BME280;29792;48.726;9.248;2023-05-06T03:25:38;96947.88;;;13.67;100.00
44131;BME280;29792;48.726;9.248;2023-05-06T03:28:03;96945.16;;;13.68;100.00
44131;BME280;29792;48.726;9.248;2023-05-06T03:30:29;96942.28;;;13.71;100.00
44131;BME280;29792;48.726;9.248;2023-05-06T03:32:54;96949.03;;;13.72;100.00
44131;BME280;29792;48.726;9.248;2023-05-06T03:35:21;96942.00;;;13.74;100.00
44131;BME280;29792;48.726;9.248;2023-05-06T03:37:46;96951.34;;;13.75;100.00
44131;BME280;29792;48.726;9.248;2023-05-06T03:40:12;96949.59;;;13.76;100.00
44131;BME280;29792;48.726;9.248;2023-05-06T03:42:37;96938.63;;;13.74;100.00
44131;BME280;29792;48.726;9.248;2023-05-06T03:45:04;96939.56;;;13.73;100.00
44131;BME280;29792;48.726;9.248;2023-05-06T03:47:30;96944.84;;;13.71;100.00
44131;BME280;29792;48.726;9.248;2023-05-06T03:49:55;96940.66;;;13.70;100.00
44131;BME280;29792;48.726;9.248;2023-05-06T03:52:21;96939.06;;;13.69;100.00
44131;BME280;29792;48.726;9.248;2023-05-06T03:54:46;96935.38;;;13.72;100.00
44131;BME280;29792;48.726;9.248;2023-05-06T03:57:11;96935.50;;;13.70;100.00
44131;BME280;29792;48.726;9.248;2023-05-06T03:59:36;96936.31;;;13.71;100.00
44131;BME280;29792;48.726;9.248;2023-05-06T04:02:02;96939.06;;;13.69;100.00
44131;BME280;29792;48.726;9.248;2023-05-06T04:04:27;96939.06;;;13.69;100.00
44131;BME280;29792;48.726;9.248;2023-05-06T04:06:52;96941.78;;;13.68;100.00
44131;BME280;29792;48.726;9.248;2023-05-06T04:09:17;96941.91;;;13.66;100.00
44131;BME280;29792;48.726;9.248;2023-05-06T04:11:43;96943.31;;;13.61;100.00
44131;BME280;29792;48.726;9.248;2023-05-06T04:14:08;96942.91;;;13.56;100.00
44131;BME280;29792;48.726;9.248;2023-05-06T04:16:33;96946.72;;;13.52;100.00
44131;BME280;29792;48.726;9.248;2023-05-06T04:18:58;96943.63;;;13.48;100.00
44131;BME280;29792;48.726;9.248;2023-05-06T04:21:25;96943.25;;;13.43;100.00
44131;BME280;29792;48.726;9.248;2023-05-06T04:23:50;96940.00;;;13.41;100.00
44131;BME280;29792;48.726;9.248;2023-05-06T04:26:16;96942.84;;;13.38;100.00
44131;BME280;29792;48.726;9.248;2023-05-06T04:28:41;96944.47;;;13.39;100.00
44131;BME280;29792;48.726;9.248;2023-05-06T04:31:06;96945.94;;;13.42;100.00
44131;BME280;29792;48.726;9.248;2023-05-06T04:33:32;96942.56;;;13.41;100.00
44131;BME280;29792;48.726;9.248;2023-05-06T04:35:58;96956.38;;;13.40;100.00
44131;BME280;29792;48.726;9.248;2023-05-06T04:38:24;96952.84;;;13.41;100.00
44131;BME280;29792;48.726;9.248;2023-05-06T04:40:51;96956.38;;;13.40;100.00
44131;BME280;29792;48.726;9.248;2023-05-06T04:43:16;96961.66;;;13.38;100.00
44131;BME280;29792;48.726;9.248;2023-05-06T04:45:42;96954.91;;;13.38;100.00
44131;BME280;29792;48.726;9.248;2023-05-06T04:48:15;96967.63;;;13.39;100.00
44131;BME280;29792;48.726;9.248;2023-05-06T04:50:40;96971.69;;;13.42;100.00
44131;BME280;29792;48.726;9.248;2023-05-06T04:53:05;96970.88;;;13.41;100.00
44131;BME280;29792;48.726;9.248;2023-05-06T04:55:30;96973.31;;;13.43;100.00
44131;BME280;29792;48.726;9.248;2023-05-06T04:57:57;96974.63;;;13.47;100.00
44131;BME280;29792;48.726;9.248;2023-05-06T05:00:22;96974.63;;;13.47;100.00
44131;BME280;29792;48.726;9.248;2023-05-06T05:02:50;96977.75;;;13.50;100.00
44131;BME280;29792;48.726;9.248;2023-05-06T05:05:15;96978.28;;;13.54;100.00
44131;BME280;29792;48.726;9.248;2023-05-06T05:07:40;96984.06;;;13.56;100.00
44131;BME280;29792;48.726;9.248;2023-05-06T05:10:06;96979.47;;;13.59;100.00
44131;BME280;29792;48.726;9.248;2023-05-06T05:12:33;96978.38;;;13.62;100.00
44131;BME280;29792;48.726;9.248;2023-05-06T05:14:58;96978.38;;;13.62;100.00
44131;BME280;29792;48.726;9.248;2023-05-06T05:17:23;96984.19;;;13.64;100.00
44131;BME280;29792;48.726;9.248;2023-05-06T05:19:48;96980.38;;;13.68;100.00
44131;BME280;29792;48.726;9.248;2023-05-06T05:22:14;96990.53;;;13.69;100.00
44131;BME280;29792;48.726;9.248;2023-05-06T05:24:39;96990.25;;;13.72;100.00
44131;BME280;29792;48.726;9.248;2023-05-06T05:27:05;96989.16;;;13.75;100.00
44131;BME280;29792;48.726;9.248;2023-05-06T05:29:31;96990.47;;;13.79;100.00
44131;BME280;29792;48.726;9.248;2023-05-06T05:31:56;96992.63;;;13.84;100.00
44131;BME280;29792;48.726;9.248;2023-05-06T05:34:21;96996.69;;;13.86;100.00
44131;BME280;29792;48.726;9.248;2023-05-06T05:36:47;96997.88;;;13.92;100.00
44131;BME280;29792;48.726;9.248;2023-05-06T05:39:12;96998.69;;;13.92;100.00
44131;BME280;29792;48.726;9.248;2023-05-06T05:41:37;97000.00;;;13.96;100.00
44131;BME280;29792;48.726;9.248;2023-05-06T05:44:03;96997.84;;;14.01;100.00
44131;BME280;29792;48.726;9.248;2023-05-06T05:46:28;96997.38;;;14.06;100.00
44131;BME280;29792;48.726;9.248;2023-05-06T05:48:53;97000.63;;;14.08;100.00
44131;BME280;29792;48.726;9.248;2023-05-06T05:51:18;97008.38;;;14.08;100.00
44131;BME280;29792;48.726;9.248;2023-05-06T05:53:44;97005.47;;;14.11;100.00
44131;BME280;29792;48.726;9.248;2023-05-06T05:56:09;97009.69;;;14.12;100.00
44131;BME280;29792;48.726;9.248;2023-05-06T05:58:34;97017.81;;;14.17;100.00
44131;BME280;29792;48.726;9.248;2023-05-06T06:00:59;97007.88;;;14.22;100.00
44131;BME280;29792;48.726;9.248;2023-05-06T06:03:25;97013.38;;;14.27;100.00
44131;BME280;29792;48.726;9.248;2023-05-06T06:05:50;97004.28;;;14.33;100.00
44131;BME280;29792;48.726;9.248;2023-05-06T06:08:19;97006.97;;;14.41;100.00
44131;BME280;29792;48.726;9.248;2023-05-06T06:10:44;97005.41;;;14.48;100.00
44131;BME280;29792;48.726;9.248;2023-05-06T06:13:10;97015.13;;;14.54;100.00
44131;BME280;29792;48.726;9.248;2023-05-06T06:15:35;97011.94;;;14.60;100.00
44131;BME280;29792;48.726;9.248;2023-05-06T06:18:00;97006.88;;;14.68;100.00
44131;BME280;29792;48.726;9.248;2023-05-06T06:20:26;97009.84;;;14.73;100.00
44131;BME280;29792;48.726;9.248;2023-05-06T06:22:51;97013.44;;;14.80;100.00
44131;BME280;29792;48.726;9.248;2023-05-06T06:25:16;97001.41;;;14.89;100.00
44131;BME280;29792;48.726;9.248;2023-05-06T06:27:41;97009.22;;;14.97;100.00
44131;BME280;29792;48.726;9.248;2023-05-06T06:30:07;97011.78;;;14.97;100.00
44131;BME280;29792;48.726;9.248;2023-05-06T06:32:32;97010.69;;;15.00;100.00
44131;BME280;29792;48.726;9.248;2023-05-06T06:34:58;97010.91;;;15.06;100.00
44131;BME280;29792;48.726;9.248;2023-05-06T06:37:23;97014.50;;;15.13;100.00
44131;BME280;29792;48.726;9.248;2023-05-06T06:39:48;97027.06;;;15.16;100.00
44131;BME280;29792;48.726;9.248;2023-05-06T06:42:14;97019.56;;;15.23;100.00
44131;BME280;29792;48.726;9.248;2023-05-06T06:44:39;97012.69;;;15.32;100.00
44131;BME280;29792;48.726;9.248;2023-05-06T06:47:04;97016.13;;;15.40;100.00
44131;BME280;29792;48.726;9.248;2023-05-06T06:49:30;97023.91;;;15.48;100.00
44131;BME280;29792;48.726;9.248;2023-05-06T06:51:55;97027.19;;;15.58;100.00
44131;BME280;29792;48.726;9.248;2023-05-06T06:54:22;97026.28;;;15.68;100.00
44131;BME280;29792;48.726;9.248;2023-05-06T06:56:47;97024.50;;;15.68;100.00
44131;BME280;29792;48.726;9.248;2023-05-06T06:59:12;97026.44;;;15.66;100.00
44131;BME280;29792;48.726;9.248;2023-05-06T07:01:40;97025.81;;;15.64;100.00
44131;BME280;29792;48.726;9.248;2023-05-06T07:04:05;97022.88;;;15.67;100.00
44131;BME280;29792;48.726;9.248;2023-05-06T07:06:30;97025.03;;;15.72;100.00
44131;BME280;29792;48.726;9.248;2023-05-06T07:08:55;97027.13;;;15.76;100.00
44131;BME280;29792;48.726;9.248;2023-05-06T07:11:21;97036.22;;;15.80;100.00
44131;BME280;29792;48.726;9.248;2023-05-06T07:13:46;97033.81;;;15.87;100.00
44131;BME280;29792;48.726;9.248;2023-05-06T07:16:11;97036.44;;;15.95;100.00
44131;BME280;29792;48.726;9.248;2023-05-06T07:18:36;97029.38;;;16.05;100.00
44131;BME280;29792;48.726;9.248;2023-05-06T07:21:02;97037.94;;;16.14;100.00
44131;BME280;29792;48.726;9.248;2023-05-06T07:23:27;97039.44;;;16.24;100.00
44131;BME280;29792;48.726;9.248;2023-05-06T07:25:52;97040.28;;;16.41;100.00
44131;BME280;29792;48.726;9.248;2023-05-06T07:28:17;97042.09;;;16.57;100.00
44131;BME280;29792;48.726;9.248;2023-05-06T07:30:43;97038.91;;;16.71;100.00
44131;BME280;29792;48.726;9.248;2023-05-06T07:33:09;97039.25;;;16.84;100.00
44131;BME280;29792;48.726;9.248;2023-05-06T07:35:35;97047.97;;;16.91;100.00
44131;BME280;29792;48.726;9.248;2023-05-06T07:38:00;97048.44;;;16.95;100.00
44131;BME280;29792;48.726;9.248;2023-05-06T07:40:26;97045.56;;;16.98;100.00
44131;BME280;29792;48.726;9.248;2023-05-06T07:42:51;97050.06;;;17.04;100.00
44131;BME280;29792;48.726;9.248;2023-05-06T07:45:16;97044.44;;;17.08;100.00
44131;BME280;29792;48.726;9.248;2023-05-06T07:47:43;97040.19;;;17.24;100.00
44131;BME280;29792;48.726;9.248;2023-05-06T07:50:09;97044.72;;;17.30;100.00
44131;BME280;29792;48.726;9.248;2023-05-06T07:52:34;97042.13;;;17.38;100.00
44131;BME280;29792;48.726;9.248;2023-05-06T07:55:00;97049.41;;;17.42;100.00
44131;BME280;29792;48.726;9.248;2023-05-06T07:57:25;97043.88;;;17.53;100.00
44131;BME280;29792;48.726;9.248;2023-05-06T07:59:50;97048.09;;;17.63;100.00
44131;BME280;29792;48.726;9.248;2023-05-06T08:02:17;97049.69;;;17.72;100.00
44131;BME280;29792;48.726;9.248;2023-05-06T08:04:43;97054.53;;;17.83;100.00
44131;BME280;29792;48.726;9.248;2023-05-06T08:07:09;97051.25;;;17.89;99.89
44131;BME280;29792;48.726;9.248;2023-05-06T08:09:35;97049.63;;;17.96;99.50
44131;BME280;29792;48.726;9.248;2023-05-06T08:12:01;97052.84;;;17.98;96.44
44131;BME280;29792;48.726;9.248;2023-05-06T08:14:27;97063.06;;;18.00;96.15
44131;BME280;29792;48.726;9.248;2023-05-06T08:16:52;97058.66;;;18.00;94.06
44131;BME280;29792;48.726;9.248;2023-05-06T08:19:18;97060.94;;;17.95;93.45
44131;BME280;29792;48.726;9.248;2023-05-06T08:21:44;97058.53;;;17.93;94.12
44131;BME280;29792;48.726;9.248;2023-05-06T08:24:09;97065.31;;;18.03;94.67
44131;BME280;29792;48.726;9.248;2023-05-06T08:26:35;97065.75;;;18.14;95.93
44131;BME280;29792;48.726;9.248;2023-05-06T08:31:28;97062.47;;;18.51;94.45
44131;BME280;29792;48.726;9.248;2023-05-06T08:33:53;97060.47;;;18.70;91.71
44131;BME280;29792;48.726;9.248;2023-05-06T08:36:18;97058.72;;;18.85;91.28
44131;BME280;29792;48.726;9.248;2023-05-06T08:38:43;97064.59;;;19.01;91.20
44131;BME280;29792;48.726;9.248;2023-05-06T08:41:16;97060.19;;;19.25;91.16
44131;BME280;29792;48.726;9.248;2023-05-06T08:43:42;97060.00;;;19.49;91.85
44131;BME280;29792;48.726;9.248;2023-05-06T08:46:10;97058.03;;;19.66;88.11
44131;BME280;29792;48.726;9.248;2023-05-06T08:48:35;97061.19;;;19.76;85.48
44131;BME280;29792;48.726;9.248;2023-05-06T08:51:02;97057.88;;;19.82;84.19
44131;BME280;29792;48.726;9.248;2023-05-06T08:53:29;97060.94;;;19.86;82.86
44131;BME280;29792;48.726;9.248;2023-05-06T08:55:56;97063.16;;;19.89;82.69
44131;BME280;29792;48.726;9.248;2023-05-06T08:58:23;97066.94;;;20.01;83.25
44131;BME280;29792;48.726;9.248;2023-05-06T09:00:50;97073.38;;;20.05;81.50
44131;BME280;29792;48.726;9.248;2023-05-06T09:03:15;97071.88;;;20.10;80.72
44131;BME280;29792;48.726;9.248;2023-05-06T09:05:40;97072.13;;;20.15;79.37
44131;BME280;29792;48.726;9.248;2023-05-06T09:08:06;97066.22;;;20.07;77.80
44131;BME280;29792;48.726;9.248;2023-05-06T09:10:36;97066.56;;;20.04;79.07
44131;BME280;29792;48.726;9.248;2023-05-06T09:13:01;97068.91;;;19.99;77.45
44131;BME280;29792;48.726;9.248;2023-05-06T09:15:38;97075.97;;;20.05;79.40
44131;BME280;29792;48.726;9.248;2023-05-06T09:18:03;97071.56;;;20.20;80.98
44131;BME280;29792;48.726;9.248;2023-05-06T09:20:32;97066.88;;;20.30;79.40
44131;BME280;29792;48.726;9.248;2023-05-06T09:22:57;97070.78;;;20.34;80.81
44131;BME280;29792;48.726;9.248;2023-05-06T09:25:23;97060.28;;;20.42;79.59
44131;BME280;29792;48.726;9.248;2023-05-06T09:27:48;97058.72;;;20.48;78.96
44131;BME280;29792;48.726;9.248;2023-05-06T09:30:13;97061.63;;;20.60;78.17
44131;BME280;29792;48.726;9.248;2023-05-06T09:32:39;97059.94;;;20.67;77.39
44131;BME280;29792;48.726;9.248;2023-05-06T09:35:06;97052.53;;;20.70;75.21
44131;BME280;29792;48.726;9.248;2023-05-06T09:37:32;97050.97;;;20.76;76.43
44131;BME280;29792;48.726;9.248;2023-05-06T09:39:58;97054.59;;;20.75;73.64
44131;BME280;29792;48.726;9.248;2023-05-06T09:42:26;97055.31;;;20.69;72.07
44131;BME280;29792;48.726;9.248;2023-05-06T09:44:57;97051.31;;;20.66;72.62
44131;BME280;29792;48.726;9.248;2023-05-06T09:47:24;97049.13;;;20.70;73.66
44131;BME280;29792;48.726;9.248;2023-05-06T09:49:49;97042.94;;;20.71;72.96
44131;BME280;29792;48.726;9.248;2023-05-06T09:52:15;97041.38;;;20.76;73.33
44131;BME280;29792;48.726;9.248;2023-05-06T09:54:41;97036.25;;;20.83;72.86
44131;BME280;29792;48.726;9.248;2023-05-06T09:57:08;97038.16;;;20.95;74.60
44131;BME280;29792;48.726;9.248;2023-05-06T09:59:34;97039.28;;;21.08;71.22
44131;BME280;29792;48.726;9.248;2023-05-06T10:02:00;97049.22;;;20.98;68.52
44131;BME280;29792;48.726;9.248;2023-05-06T10:04:28;97041.75;;;20.94;69.01
44131;BME280;29792;48.726;9.248;2023-05-06T10:06:54;97035.38;;;20.97;69.87
44131;BME280;29792;48.726;9.248;2023-05-06T10:09:23;97031.66;;;21.06;69.51
44131;BME280;29792;48.726;9.248;2023-05-06T10:11:50;97033.50;;;21.12;68.99
44131;BME280;29792;48.726;9.248;2023-05-06T10:14:17;97033.94;;;21.16;69.69
44131;BME280;29792;48.726;9.248;2023-05-06T10:16:43;97019.75;;;21.18;69.70
44131;BME280;29792;48.726;9.248;2023-05-06T10:19:10;97017.97;;;21.25;67.42
44131;BME280;29792;48.726;9.248;2023-05-06T10:21:38;97021.69;;;21.38;69.11
44131;BME280;29792;48.726;9.248;2023-05-06T10:24:07;97020.41;;;21.55;70.54
44131;BME280;29792;48.726;9.248;2023-05-06T10:26:36;97013.00;;;21.58;67.24
44131;BME280;29792;48.726;9.248;2023-05-06T10:29:03;97015.22;;;21.61;67.17
44131;BME280;29792;48.726;9.248;2023-05-06T10:31:33;97007.63;;;21.66;68.54
44131;BME280;29792;48.726;9.248;2023-05-06T10:34:01;97007.44;;;21.68;68.98
44131;BME280;29792;48.726;9.248;2023-05-06T10:36:30;97012.19;;;21.58;66.29
44131;BME280;29792;48.726;9.248;2023-05-06T10:38:58;97004.31;;;21.51;64.68
44131;BME280;29792;48.726;9.248;2023-05-06T10:41:26;97005.34;;;21.57;66.52
44131;BME280;29792;48.726;9.248;2023-05-06T10:43:54;97004.78;;;21.61;68.72
44131;BME280;29792;48.726;9.248;2023-05-06T10:46:24;96995.53;;;21.59;67.05
44131;BME280;29792;48.726;9.248;2023-05-06T10:51:33;96992.78;;;21.67;68.97
44131;BME280;29792;48.726;9.248;2023-05-06T10:54:09;96985.00;;;21.74;66.66
44131;BME280;29792;48.726;9.248;2023-05-06T10:56:36;96986.47;;;21.89;66.11
44131;BME280;29792;48.726;9.248;2023-05-06T10:59:05;96980.34;;;22.03;65.96
44131;BME280;29792;48.726;9.248;2023-05-06T11:01:34;96982.81;;;22.18;65.14
44131;BME280;29792;48.726;9.248;2023-05-06T11:04:11;96977.03;;;22.36;65.11
44131;BME280;29792;48.726;9.248;2023-05-06T11:06:44;96977.03;;;22.49;61.88
44131;BME280;29792;48.726;9.248;2023-05-06T11:09:25;96974.25;;;22.57;61.61
44131;BME280;29792;48.726;9.248;2023-05-06T11:11:58;96980.47;;;22.63;59.70
44131;BME280;29792;48.726;9.248;2023-05-06T11:14:31;96975.84;;;22.58;61.00
44131;BME280;29792;48.726;9.248;2023-05-06T11:16:58;96979.09;;;22.60;61.58
44131;BME280;29792;48.726;9.248;2023-05-06T11:19:29;96981.69;;;22.54;60.44
44131;BME280;29792;48.726;9.248;2023-05-06T11:21:56;96975.63;;;22.40;61.24
44131;BME280;29792;48.726;9.248;2023-05-06T11:24:29;96967.97;;;22.32;64.08
44131;BME280;29792;48.726;9.248;2023-05-06T11:26:57;96974.59;;;22.34;63.98
44131;BME280;29792;48.726;9.248;2023-05-06T11:29:23;96971.00;;;22.42;64.48
44131;BME280;29792;48.726;9.248;2023-05-06T11:31:49;96968.03;;;22.58;62.89
44131;BME280;29792;48.726;9.248;2023-05-06T11:34:23;96967.84;;;22.66;62.92
44131;BME280;29792;48.726;9.248;2023-05-06T11:36:58;96964.25;;;22.74;61.97
44131;BME280;29792;48.726;9.248;2023-05-06T11:39:25;96964.66;;;22.77;60.67
44131;BME280;29792;48.726;9.248;2023-05-06T11:41:59;96966.66;;;22.75;59.25
44131;BME280;29792;48.726;9.248;2023-05-06T11:44:33;96969.47;;;22.74;61.03
44131;BME280;29792;48.726;9.248;2023-05-06T11:47:05;96966.25;;;22.78;59.90
44131;BME280;29792;48.726;9.248;2023-05-06T11:49:39;96956.59;;;22.79;61.00
44131;BME280;29792;48.726;9.248;2023-05-06T11:52:07;96960.63;;;22.88;61.00
44131;BME280;29792;48.726;9.248;2023-05-06T11:54:34;96964.44;;;23.05;61.40
44131;BME280;29792;48.726;9.248;2023-05-06T11:57:00;96970.47;;;23.26;65.11
44131;BME280;29792;48.726;9.248;2023-05-06T11:59:31;96960.75;;;23.46;62.57
44131;BME280;29792;48.726;9.248;2023-05-06T12:02:00;96962.13;;;23.68;61.21
44131;BME280;29792;48.726;9.248;2023-05-06T12:04:25;96968.50;;;23.85;57.05
44131;BME280;29792;48.726;9.248;2023-05-06T12:06:51;96961.25;;;23.87;55.98
44131;BME280;29792;48.726;9.248;2023-05-06T12:09:17;96959.63;;;23.93;55.66
44131;BME280;29792;48.726;9.248;2023-05-06T12:11:46;96960.59;;;24.05;55.78
44131;BME280;29792;48.726;9.248;2023-05-06T12:14:11;96968.56;;;24.17;54.58
44131;BME280;29792;48.726;9.248;2023-05-06T12:16:37;96959.69;;;24.18;54.10
44131;BME280;29792;48.726;9.248;2023-05-06T12:19:02;96968.38;;;24.18;55.19
44131;BME280;29792;48.726;9.248;2023-05-06T12:21:28;96958.69;;;24.19;51.66
44131;BME280;29792;48.726;9.248;2023-05-06T12:23:59;96955.88;;;24.27;55.15
44131;BME280;29792;48.726;9.248;2023-05-06T12:26:25;96947.38;;;24.31;55.20
44131;BME280;29792;48.726;9.248;2023-05-06T12:29:08;96949.00;;;24.26;52.63
44131;BME280;29792;48.726;9.248;2023-05-06T12:31:34;96954.03;;;24.27;53.78
44131;BME280;29792;48.726;9.248;2023-05-06T12:34:00;96952.41;;;24.33;52.53
44131;BME280;29792;48.726;9.248;2023-05-06T12:36:26;96951.13;;;24.42;52.54
44131;BME280;29792;48.726;9.248;2023-05-06T12:38:53;96949.91;;;24.45;50.74
44131;BME280;29792;48.726;9.248;2023-05-06T12:41:19;96947.28;;;24.45;50.22
44131;BME280;29792;48.726;9.248;2023-05-06T12:43:45;96953.69;;;24.49;51.92
44131;BME280;29792;48.726;9.248;2023-05-06T12:46:11;96942.81;;;24.52;52.55
44131;BME280;29792;48.726;9.248;2023-05-06T12:48:37;96944.84;;;24.50;51.05
44131;BME280;29792;48.726;9.248;2023-05-06T12:51:22;96948.59;;;24.85;53.72
44131;BME280;29792;48.726;9.248;2023-05-06T12:53:48;96950.75;;;25.38;53.46
44131;BME280;29792;48.726;9.248;2023-05-06T12:56:13;96944.03;;;25.67;49.35
44131;BME280;29792;48.726;9.248;2023-05-06T12:58:39;96946.06;;;25.83;49.17
44131;BME280;29792;48.726;9.248;2023-05-06T13:01:05;96936.50;;;25.89;48.75
44131;BME280;29792;48.726;9.248;2023-05-06T13:03:31;96937.38;;;26.01;47.54